KSGU/SGU METAR and TAF weather

Enter ICAO airport designator
Station Type Date Time Source
KSGU METAR 2019/12/09 05:56 UTC NOAA

KSGU 090556Z AUTO 14004KT 10SM CLR 06/06 A3000 RMK AO2 SLP156 6//// T00610056 10094 20061 53008 PNO $


Station Type Date Time Source
KSGU Decoded METAR 2019/12/09 05:56 UTC NOAA

St George, St George Municipal Airport, UT, United States (KSGU) 37-05N 113-36W
Dec 09, 2019 - 12:56 AM EST / 2019.12.09 0556 UTC
Wind: from the SE (140 degrees) at 5 MPH (4 KT):0
Visibility: 10 mile(s):0
Sky conditions: clear
Temperature: 43.0 F (6.1 C)
Dew Point: 42.1 F (5.6 C)
Relative Humidity: 96%
Pressure (altimeter): 30 in. Hg (1015 hPa)
Pressure tendency: 0.02 inches (0.8 hPa) higher than three hours ago
ob: KSGU 090556Z AUTO 14004KT 10SM CLR 06/06 A3000 RMK AO2 SLP156 6//// T00610056 10094 20061 53008 PNO
cycle: 6

Station Type Date Time Source
KSGU TAF 2019/12/09 06:27 UTC NOAA

TAF KSGU 090525Z 0906/1006 VRB04KT P6SM FEW060 SCT150
FM100200 06007KT P6SM SKC

Example: see airport list